Time;durP1;ratioP1;P1;durP2;ratioP2;P2;SDS_P1;SDS_P2;PMS_P1;PMS_P2;Temp;Humidity;BMP_temperature;BMP_pressure;BME280_temperature;BME280_humidity;BME280_pressure;Samples;Min_cycle;Max_cycle;Signal;HPM_P1;HPM_P2
2023/01/24 02:17:18;;;;;;;17.60;6.80;;;;;;;-1.55;100.00;100643.27;104552;1296;557381;-66
2023/01/24 02:19:50;;;;;;;18.30;7.10;;;;;;;-1.40;100.00;100629.77;105937;1287;240738;-68
2023/01/24 02:22:40;;;;;;;18.10;6.90;;;;;;;-1.37;100.00;100636.85;106113;1287;25262;-68
2023/01/24 02:25:21;;;;;;;19.00;7.60;;;;;;;-1.36;100.00;100641.75;106325;1283;24280;-67
2023/01/24 02:27:50;;;;;;;16.00;6.60;;;;;;;-1.37;100.00;100643.42;106370;1284;22534;-67
2023/01/24 02:30:19;;;;;;;15.90;6.20;;;;;;;-1.38;100.00;100652.14;106298;1284;22727;-67
2023/01/24 02:32:48;;;;;;;18.10;6.90;;;;;;;-1.40;100.00;100655.94;106209;1284;25441;-68
2023/01/24 02:35:27;;;;;;;14.50;6.50;;;;;;;-1.41;100.00;100659.05;105654;1284;1003269;-69
2023/01/24 02:37:59;;;;;;;13.40;5.70;;;;;;;-1.44;100.00;100665.52;105996;1278;1003093;-66
2023/01/24 02:40:28;;;;;;;14.90;6.10;;;;;;;-1.46;100.00;100665.13;106738;1278;25482;-67
2023/01/24 02:43:01;;;;;;;19.00;6.60;;;;;;;-1.47;100.00;100673.48;106610;1278;24897;-69
2023/01/24 02:45:30;;;;;;;17.50;6.60;;;;;;;-1.49;100.00;100674.09;106667;1278;22637;-68
2023/01/24 02:47:59;;;;;;;19.80;7.30;;;;;;;-1.50;100.00;100677.52;106648;1256;22541;-67
2023/01/24 02:53:28;;;;;;;18.20;7.00;;;;;;;-1.50;100.00;100678.23;105977;1278;1003650;-67
2023/01/24 02:53:30;;;;;;;16.60;6.50;;;;;;;-1.50;100.00;100682.86;106922;1275;24236;-68
2023/01/24 02:58:49;;;;;;;17.10;6.60;;;;;;;-1.52;100.00;100686.09;106982;1275;26524;-67
2023/01/24 03:01:17;;;;;;;18.40;6.40;;;;;;;-1.52;100.00;100689.63;106957;1275;23892;-67
2023/01/24 03:03:49;;;;;;;18.00;7.10;;;;;;;-1.54;100.00;100701.38;106915;1275;25432;-68
2023/01/24 03:06:18;;;;;;;15.20;6.30;;;;;;;-1.55;100.00;100707.64;106655;1275;25277;-67
2023/01/24 03:08:48;;;;;;;12.90;6.50;;;;;;;-1.56;100.00;100713.34;107021;1275;23867;-66
2023/01/24 03:11:24;;;;;;;16.40;6.00;;;;;;;-1.59;100.00;100714.72;106190;1275;1003614;-68
2023/01/24 03:36:19;;;;;;;18.90;6.50;;;;;;;-1.67;100.00;100787.79;106963;1275;26484;-68
2023/01/24 03:41:41;;;;;;;15.70;6.50;;;;;;;-1.66;100.00;100801.20;106953;1275;25592;-69
2023/01/24 03:44:11;;;;;;;21.40;6.80;;;;;;;-1.69;100.00;100806.10;106109;1275;1002891;-67
2023/01/24 03:46:39;;;;;;;14.60;6.00;;;;;;;-1.72;100.00;100814.17;106884;1275;25307;-68
2023/01/24 03:49:11;;;;;;;14.90;6.00;;;;;;;-1.75;100.00;100816.65;106276;1275;1002855;-69
2023/01/24 03:54:27;;;;;;;14.50;6.20;;;;;;;-1.80;100.00;100826.41;107053;1275;25317;-69
2023/01/24 03:57:03;;;;;;;20.50;7.10;;;;;;;-1.81;100.00;100830.54;106949;1275;25344;-67
2023/01/24 03:59:33;;;;;;;18.40;7.30;;;;;;;-1.82;100.00;100839.41;106222;1275;1003415;-67
2023/01/24 04:02:01;;;;;;;19.80;6.90;;;;;;;-1.83;100.00;100848.14;106258;1275;1003002;-67
2023/01/24 04:07:22;;;;;;;16.00;6.80;;;;;;;-1.85;100.00;100858.48;107028;1266;26522;-67
2023/01/24 04:10:06;;;;;;;15.10;6.60;;;;;;;-1.87;100.00;100858.41;106973;1275;25868;-67
2023/01/24 04:12:43;;;;;;;16.80;6.10;;;;;;;-1.89;100.00;100866.09;106925;1275;22525;-68
2023/01/24 04:15:17;;;;;;;17.40;6.50;;;;;;;-1.92;100.00;100870.60;106126;1275;1002869;-69
2023/01/24 04:17:49;;;;;;;14.50;6.00;;;;;;;-1.94;100.00;100870.35;107004;1275;22525;-70
2023/01/24 04:20:18;;;;;;;14.20;6.00;;;;;;;-1.96;100.00;100866.58;107161;1275;25262;-68
2023/01/24 04:22:48;;;;;;;14.40;6.20;;;;;;;-1.98;100.00;100865.79;107031;1275;22873;-67
2023/01/24 04:25:17;;;;;;;13.70;6.20;;;;;;;-2.00;100.00;100873.84;106930;1275;25355;-67
2023/01/24 04:27:46;;;;;;;16.90;6.50;;;;;;;-2.01;100.00;100874.42;106989;1275;25429;-66
2023/01/24 04:30:23;;;;;;;15.50;6.40;;;;;;;-2.05;100.00;100875.29;107056;1275;25434;-68
2023/01/24 04:32:54;;;;;;;16.20;6.20;;;;;;;-2.08;100.00;100876.48;107073;1275;24007;-67
2023/01/24 04:35:26;;;;;;;13.30;5.60;;;;;;;-2.10;100.00;100877.64;106357;1275;1003292;-67
2023/01/24 04:38:02;;;;;;;12.00;5.90;;;;;;;-2.12;100.00;100884.05;106967;1275;22599;-66
2023/01/24 04:41:03;;;;;;;14.40;6.00;;;;;;;-2.14;100.00;100884.02;107066;1275;25291;-68
2023/01/24 04:43:38;;;;;;;13.70;6.20;;;;;;;-2.18;100.00;100887.00;106976;1275;22620;-68
2023/01/24 04:46:08;;;;;;;15.20;6.30;;;;;;;-2.21;100.00;100886.06;106929;1275;25530;-67
2023/01/24 04:48:48;;;;;;;13.30;6.10;;;;;;;-2.23;100.00;100892.54;106957;1275;26577;-67
2023/01/24 04:51:16;;;;;;;15.20;6.20;;;;;;;-2.25;100.00;100895.30;106954;1275;24167;-66
2023/01/24 04:53:46;;;;;;;14.20;5.80;;;;;;;-2.31;100.00;100904.17;106960;1275;22533;-68
2023/01/24 04:56:16;;;;;;;15.40;5.30;;;;;;;-2.34;100.00;100911.56;106957;1275;25496;-68
2023/01/24 04:58:45;;;;;;;12.20;5.20;;;;;;;-2.38;100.00;100918.24;106980;1275;26527;-67
2023/01/24 05:01:14;;;;;;;11.90;4.90;;;;;;;-2.41;100.00;100922.29;106985;1275;25431;-68
2023/01/24 05:03:59;;;;;;;18.30;6.20;;;;;;;-2.44;100.00;100926.50;106294;1275;1003431;-70
2023/01/24 05:06:30;;;;;;;13.30;5.70;;;;;;;-2.47;100.00;100927.31;107040;1275;26482;-69
2023/01/24 05:08:58;;;;;;;12.90;5.00;;;;;;;-2.49;100.00;100929.30;106871;1275;25547;-68
2023/01/24 05:11:39;;;;;;;11.80;5.60;;;;;;;-2.49;100.00;100937.64;107039;1275;25366;-67
2023/01/24 05:14:09;;;;;;;18.40;6.90;;;;;;;-2.49;100.00;100937.09;106918;1275;22524;-67
2023/01/24 05:16:39;;;;;;;15.10;6.00;;;;;;;-2.48;100.00;100942.53;106173;1275;1002906;-68
2023/01/24 05:19:09;;;;;;;14.30;5.90;;;;;;;-2.48;100.00;100946.95;106858;1275;22525;-68
2023/01/24 05:21:38;;;;;;;12.40;6.00;;;;;;;-2.48;100.00;100945.70;106931;1275;25317;-66
2023/01/24 05:24:07;;;;;;;17.00;6.10;;;;;;;-2.51;100.00;100948.83;107029;1275;26580;-68
2023/01/24 05:26:36;;;;;;;14.60;6.00;;;;;;;-2.53;100.00;100953.51;106271;1275;1003030;-68
2023/01/24 05:29:06;;;;;;;13.80;5.70;;;;;;;-2.54;100.00;100953.39;106894;1275;24189;-69
2023/01/24 05:31:35;;;;;;;13.50;5.80;;;;;;;-2.57;100.00;100956.87;107043;1275;23327;-68
2023/01/24 05:34:05;;;;;;;15.70;5.50;;;;;;;-2.60;100.00;100960.15;106195;1275;1002959;-68
2023/01/24 05:36:34;;;;;;;17.20;6.10;;;;;;;-2.62;100.00;100966.98;106245;1275;1015339;-69
2023/01/24 05:39:02;;;;;;;21.60;7.00;;;;;;;-2.64;100.00;100974.46;106993;1275;22543;-68
2023/01/24 05:41:32;;;;;;;17.20;6.10;;;;;;;-2.64;100.00;100974.30;106999;1275;25242;-69
2023/01/24 05:44:01;;;;;;;18.60;6.50;;;;;;;-2.64;100.00;100982.60;107003;1275;22543;-68
2023/01/24 05:46:33;;;;;;;21.80;6.50;;;;;;;-2.64;100.00;100981.71;106188;1275;1002907;-68
2023/01/24 05:49:24;;;;;;;19.90;8.00;;;;;;;-2.66;100.00;100982.13;106896;1275;22652;-67
2023/01/24 05:51:55;;;;;;;15.20;6.60;;;;;;;-2.69;100.00;100983.83;106245;1275;1002851;-71
2023/01/24 05:54:50;;;;;;;18.10;7.30;;;;;;;-2.72;100.00;100986.06;107058;1275;25493;-68
2023/01/24 05:57:31;;;;;;;23.30;8.20;;;;;;;-2.74;100.00;100996.03;106990;1275;25435;-67
2023/01/24 06:00:21;;;;;;;17.40;6.90;;;;;;;-2.77;100.00;101003.05;106187;1275;1003767;-68
2023/01/24 06:03:09;;;;;;;19.20;6.40;;;;;;;-2.79;100.00;101007.20;106976;1275;26637;-68
2023/01/24 06:05:37;;;;;;;19.20;7.00;;;;;;;-2.83;100.00;101014.42;106886;1275;25306;-69
2023/01/24 06:08:07;;;;;;;14.00;6.10;;;;;;;-2.86;100.00;101025.46;107002;1275;26495;-68
2023/01/24 06:10:36;;;;;;;19.90;6.90;;;;;;;-2.88;100.00;101025.20;106275;1275;1003814;-67
2023/01/24 06:13:11;;;;;;;15.80;6.70;;;;;;;-2.90;100.00;101030.77;107057;1275;25455;-67
2023/01/24 06:15:40;;;;;;;19.30;7.20;;;;;;;-2.93;100.00;101036.69;106831;1275;25255;-67
2023/01/24 06:18:15;;;;;;;18.50;7.60;;;;;;;-2.95;100.00;101039.74;106956;1276;22671;-67
2023/01/24 06:20:46;;;;;;;20.30;7.60;;;;;;;-2.94;100.00;101040.27;106175;1276;1003635;-68
2023/01/24 06:23:24;;;;;;;16.40;7.00;;;;;;;-2.94;100.00;101039.73;106151;1276;1003214;-68
2023/01/24 06:25:55;;;;;;;20.40;7.40;;;;;;;-2.94;100.00;101044.84;106093;1276;1003114;-68
2023/01/24 06:28:24;;;;;;;19.90;7.00;;;;;;;-2.94;100.00;101046.10;106079;1276;1003605;-68
2023/01/24 06:31:05;;;;;;;21.30;6.70;;;;;;;-2.96;100.00;101049.70;106095;1276;1003814;-68
2023/01/24 06:33:39;;;;;;;15.90;6.30;;;;;;;-2.98;100.00;101046.22;106868;1276;24267;-69
2023/01/24 06:36:27;;;;;;;14.80;6.20;;;;;;;-2.98;100.00;101051.54;106035;1276;1003418;-68
2023/01/24 06:38:57;;;;;;;15.50;5.70;;;;;;;-2.99;100.00;101043.99;106141;1275;1002646;-66
2023/01/24 06:41:26;;;;;;;23.30;8.00;;;;;;;-3.00;100.00;101054.06;106133;1272;1003244;-67
2023/01/24 06:43:56;;;;;;;20.30;8.10;;;;;;;-2.98;100.00;101054.89;106173;1269;1002873;-66
2023/01/24 06:46:25;;;;;;;23.40;8.90;;;;;;;-2.97;100.00;101055.20;106827;1275;25447;-67
2023/01/24 06:48:53;;;;;;;14.60;6.60;;;;;;;-2.96;100.00;101057.81;106074;1273;1002852;-70
2023/01/24 06:51:22;;;;;;;19.30;7.00;;;;;;;-2.98;100.00;101061.95;106103;1269;1003647;-69
2023/01/24 06:53:51;;;;;;;17.50;7.50;;;;;;;-2.99;100.00;101066.73;106308;1275;1003507;-70
2023/01/24 06:56:20;;;;;;;16.30;6.40;;;;;;;-2.99;100.00;101069.73;106913;1273;25321;-70
2023/01/24 06:58:49;;;;;;;16.20;6.20;;;;;;;-2.98;100.00;101069.34;106958;1269;22713;-67
2023/01/24 07:01:18;;;;;;;12.60;5.60;;;;;;;-2.98;100.00;101070.94;106226;1270;1003083;-68
2023/01/24 07:03:47;;;;;;;18.20;6.90;;;;;;;-2.98;100.00;101073.75;107159;1268;25313;-67
2023/01/24 07:06:16;;;;;;;17.70;6.50;;;;;;;-2.97;100.00;101078.14;106085;1270;1003021;-69
2023/01/24 07:08:44;;;;;;;15.60;6.10;;;;;;;-2.99;100.00;101078.38;107074;1272;24285;-72
2023/01/24 07:11:14;;;;;;;15.30;5.10;;;;;;;-3.01;100.00;101082.52;106151;1271;1003063;-69
2023/01/24 07:13:46;;;;;;;14.40;5.10;;;;;;;-3.04;100.00;101089.52;107032;1275;26515;-70
2023/01/24 07:16:15;;;;;;;15.90;5.90;;;;;;;-3.05;100.00;101093.62;107046;1269;25545;-67
2023/01/24 07:18:43;;;;;;;14.50;5.60;;;;;;;-3.03;100.00;101099.73;106060;1275;1003503;-70
2023/01/24 07:21:12;;;;;;;18.00;5.40;;;;;;;-3.01;100.00;101099.63;106280;1275;1002978;-72
2023/01/24 07:23:46;;;;;;;15.50;6.10;;;;;;;-3.00;100.00;101105.25;106932;1275;25398;-67
2023/01/24 07:26:15;;;;;;;13.40;5.80;;;;;;;-2.98;100.00;101110.10;106325;1270;1002878;-69
2023/01/24 07:28:44;;;;;;;17.70;5.30;;;;;;;-2.96;100.00;101114.11;106135;1275;1003806;-70
2023/01/24 07:31:13;;;;;;;15.90;5.10;;;;;;;-2.99;100.00;101119.30;106949;1275;24251;-68
2023/01/24 07:33:46;;;;;;;16.10;6.00;;;;;;;-3.02;100.00;101128.07;106856;1275;25321;-67
2023/01/24 07:36:15;;;;;;;23.00;6.90;;;;;;;-3.02;100.00;101136.55;106396;1270;1002949;-69
2023/01/24 07:38:45;;;;;;;19.90;7.00;;;;;;;-3.05;100.00;101138.61;107217;1270;25321;-70
2023/01/24 07:41:14;;;;;;;17.10;6.30;;;;;;;-3.09;100.00;101144.55;107224;1269;23285;-71
2023/01/24 07:43:44;;;;;;;21.40;9.10;;;;;;;-3.11;100.00;101150.27;106969;1269;23773;-70
2023/01/24 07:46:12;;;;;;;20.00;7.80;;;;;;;-3.10;100.00;101151.30;106556;1276;1003515;-68
2023/01/24 07:48:41;;;;;;;20.90;8.70;;;;;;;-3.06;100.00;101151.85;107169;1273;24374;-67
2023/01/24 07:51:10;;;;;;;20.10;7.80;;;;;;;-3.00;100.00;101153.22;106997;1276;25443;-70
2023/01/24 07:53:38;;;;;;;19.40;7.90;;;;;;;-2.92;100.00;101146.39;106940;1276;22940;-65
2023/01/24 07:56:07;;;;;;;15.40;6.50;;;;;;;-2.85;100.00;101138.54;109492;1269;22683;-76
2023/01/24 07:58:49;;;;;;;18.20;5.80;;;;;;;-2.77;100.00;101131.16;107662;1275;1003092;-76
2023/01/24 08:01:19;;;;;;;11.60;5.00;;;;;;;-2.68;100.00;101131.70;107221;1269;1003016;-75
2023/01/24 08:03:49;;;;;;;13.60;5.70;;;;;;;-2.58;100.00;101129.55;107988;1276;25639;-74
2023/01/24 08:06:18;;;;;;;14.40;5.50;;;;;;;-2.51;100.00;101127.01;107316;1276;1003329;-75
2023/01/24 08:08:48;;;;;;;11.10;5.30;;;;;;;-2.44;100.00;101134.16;107824;1276;25521;-73
2023/01/24 08:11:17;;;;;;;22.80;6.40;;;;;;;-2.40;100.00;101138.92;107857;1275;22599;-74
2023/01/24 08:13:46;;;;;;;18.60;6.40;;;;;;;-2.38;100.00;101137.96;107794;1272;25320;-76
2023/01/24 08:16:15;;;;;;;14.30;5.50;;;;;;;-2.38;100.00;101146.45;107226;1272;25519;-67
2023/01/24 08:18:45;;;;;;;11.70;5.30;;;;;;;-2.40;100.00;101151.46;106257;1271;1003642;-66
2023/01/24 08:21:13;;;;;;;20.60;6.40;;;;;;;-2.40;100.00;101158.17;106917;1275;25255;-67
2023/01/24 08:23:42;;;;;;;13.60;6.00;;;;;;;-2.41;100.00;101164.20;106996;1271;25285;-66
2023/01/24 08:26:11;;;;;;;16.60;5.60;;;;;;;-2.43;100.00;101169.06;106712;1275;26526;-65
2023/01/24 08:28:40;;;;;;;15.10;5.90;;;;;;;-2.47;100.00;101177.15;106718;1269;26532;-70
2023/01/24 08:31:09;;;;;;;16.20;5.10;;;;;;;-2.51;100.00;101183.83;106772;1269;25442;-69
2023/01/24 08:33:38;;;;;;;13.60;5.30;;;;;;;-2.53;100.00;101197.16;106882;1269;25279;-67
2023/01/24 08:36:07;;;;;;;19.50;5.00;;;;;;;-2.54;100.00;101198.09;106949;1269;25347;-71
2023/01/24 08:38:39;;;;;;;12.70;5.30;;;;;;;-2.52;100.00;101204.17;106855;1269;24472;-69
2023/01/24 08:41:08;;;;;;;19.10;7.70;;;;;;;-2.47;100.00;101200.45;106096;1276;1002936;-69
2023/01/24 08:43:37;;;;;;;15.40;6.00;;;;;;;-2.43;100.00;101200.83;106937;1269;26767;-68
2023/01/24 08:51:59;;;;;;;17.10;5.80;;;;;;;-2.40;100.00;101166.30;107114;1268;22613;-68
2023/01/24 08:54:42;;;;;;;17.00;6.30;;;;;;;-2.40;100.00;101177.60;106836;1269;22534;-67
2023/01/24 08:58:39;;;;;;;12.30;5.00;;;;;;;-2.41;100.00;101165.98;106880;1269;22533;-67
2023/01/24 09:01:15;;;;;;;17.70;6.00;;;;;;;-2.43;100.00;101185.13;106880;1269;25347;-67
2023/01/24 09:04:06;;;;;;;16.80;5.70;;;;;;;-2.42;100.00;101181.58;106939;1274;22491;-66
2023/01/24 09:08:24;;;;;;;16.60;6.10;;;;;;;-2.38;100.00;101170.64;107187;1268;22475;-71
2023/01/24 09:11:06;;;;;;;18.70;6.70;;;;;;;-2.37;100.00;101170.23;107853;1268;23942;-76
2023/01/24 09:13:35;;;;;;;15.70;5.30;;;;;;;-2.38;100.00;101188.31;107718;1269;24142;-75
2023/01/24 09:16:08;;;;;;;18.00;6.30;;;;;;;-2.38;100.00;101197.30;107484;1269;22733;-71
2023/01/24 09:18:37;;;;;;;17.10;5.70;;;;;;;-2.36;100.00;101193.69;106245;1269;1003540;-69
2023/01/24 09:21:12;;;;;;;13.70;5.50;;;;;;;-2.34;100.00;101193.05;106961;1271;24250;-72
2023/01/24 09:23:47;;;;;;;15.10;5.70;;;;;;;-2.31;100.00;101189.42;106552;1269;1003050;-69
2023/01/24 09:26:21;;;;;;;19.80;7.10;;;;;;;-2.29;100.00;101181.39;106635;1268;1003301;-68
2023/01/24 09:28:52;;;;;;;22.60;7.80;;;;;;;-2.26;100.00;101183.23;106997;1270;22528;-75
2023/01/24 09:31:45;;;;;;;17.20;6.20;;;;;;;-2.21;100.00;101182.34;107792;1269;22549;-75
2023/01/24 09:34:46;;;;;;;17.30;6.70;;;;;;;-2.18;100.00;101169.11;108226;1267;23417;-76
2023/01/24 09:38:05;;;;;;;14.10;5.10;;;;;;;-2.17;100.00;101170.67;107876;1267;25623;-75
2023/01/24 09:46:17;;;;;;;13.90;5.30;;;;;;;-2.18;100.00;101158.52;107772;1272;1003343;-75
2023/01/24 09:50:59;;;;;;;15.80;5.80;;;;;;;-2.25;100.00;101163.94;107171;1270;1003244;-78
2023/01/24 09:55:15;;;;;;;20.00;6.40;;;;;;;-2.25;100.00;101156.70;107340;1274;25979;-76
2023/01/24 09:58:01;;;;;;;19.50;6.80;;;;;;;-2.24;100.00;101170.63;107295;1281;24266;-77
2023/01/24 10:01:12;;;;;;;21.80;8.60;;;;;;;-2.29;100.00;101175.77;107119;1274;25803;-76
2023/01/24 10:03:41;;;;;;;19.20;7.40;;;;;;;-2.34;100.00;101167.10;107032;1273;22631;-75
2023/01/24 10:06:29;;;;;;;22.10;7.20;;;;;;;-2.36;100.00;101174.98;106096;1278;1003638;-71
2023/01/24 10:10:04;;;;;;;19.10;7.40;;;;;;;-2.36;100.00;101167.56;106411;1281;22561;-69
2023/01/24 10:33:05;;;;;;;19.80;7.90;;;;;;;-2.43;100.00;101065.58;103823;1297;1003605;-75
2023/01/24 10:35:59;;;;;;;23.80;12.00;;;;;;;-2.35;100.00;101045.45;105794;1283;218988;-75
2023/01/24 10:38:28;;;;;;;29.40;10.60;;;;;;;-2.33;100.00;101064.28;105849;1283;22555;-74
2023/01/24 10:41:22;;;;;;;17.80;7.60;;;;;;;-2.40;100.00;101070.05;106045;1273;1002669;-73
2023/01/24 10:45:10;;;;;;;25.90;8.10;;;;;;;-2.51;100.00;101063.08;105756;1272;1002990;-74
2023/01/24 10:48:46;;;;;;;20.30;8.00;;;;;;;-2.62;100.00;101039.15;106035;1276;1003385;-75
2023/01/24 10:51:20;;;;;;;21.70;8.50;;;;;;;-2.64;100.00;101037.13;105947;1277;1003038;-74
2023/01/24 10:53:50;;;;;;;19.20;7.60;;;;;;;-2.63;100.00;101032.17;105946;1271;1003074;-74
2023/01/24 10:57:01;;;;;;;22.20;8.50;;;;;;;-2.64;100.00;101022.85;105903;1273;1003400;-74
2023/01/24 10:59:34;;;;;;;22.10;9.20;;;;;;;-2.70;100.00;101010.73;106743;1272;22528;-75
2023/01/24 11:02:09;;;;;;;25.90;10.10;;;;;;;-2.75;100.00;101010.20;106725;1273;25490;-68
2023/01/24 11:05:11;;;;;;;26.20;10.70;;;;;;;-2.75;100.00;100995.39;105958;1274;1002980;-68
2023/01/24 11:07:45;;;;;;;23.60;10.10;;;;;;;-2.74;100.00;100974.19;106747;1275;25416;-67
2023/01/24 11:10:25;;;;;;;19.10;9.10;;;;;;;-2.77;100.00;100964.41;106575;1279;22533;-66
2023/01/24 11:13:19;;;;;;;22.20;9.90;;;;;;;-2.81;100.00;100946.22;105972;1272;1003045;-64
2023/01/24 11:16:17;;;;;;;18.60;8.10;;;;;;;-2.82;100.00;100933.05;106381;1276;22874;-67
2023/01/24 11:18:57;;;;;;;19.80;7.80;;;;;;;-2.85;100.00;100916.02;106427;1279;22527;-64
2023/01/24 11:25:03;;;;;;;17.40;7.40;;;;;;;-2.92;100.00;100872.73;106552;1276;22539;-66
2023/01/24 11:27:34;;;;;;;22.30;8.70;;;;;;;-2.95;100.00;100879.39;106689;1279;25383;-66
2023/01/24 11:30:34;;;;;;;22.40;8.10;;;;;;;-2.97;100.00;100858.33;105806;1273;1003022;-66
2023/01/24 11:38:21;;;;;;;23.40;10.70;;;;;;;-2.90;100.00;100795.53;106709;1279;24313;-70
2023/01/24 11:41:20;;;;;;;19.10;8.50;;;;;;;-2.88;100.00;100797.55;106707;1273;25314;-69
2023/01/24 11:44:22;;;;;;;20.60;7.80;;;;;;;-2.85;100.00;100781.90;105842;1272;1003439;-66
2023/01/24 11:47:14;;;;;;;22.80;8.90;;;;;;;-2.84;100.00;100773.05;105848;1272;1003731;-67
2023/01/24 11:50:26;;;;;;;17.00;7.40;;;;;;;-2.86;100.00;100766.95;105893;1277;1003429;-68
2023/01/24 11:57:03;;;;;;;26.50;11.10;;;;;;;-2.86;100.00;100731.52;105981;1272;1002990;-76
2023/01/24 12:04:21;;;;;;;17.90;7.30;;;;;;;-2.88;100.00;100698.41;105921;1273;1003000;-74
2023/01/24 12:07:12;;;;;;;19.20;8.10;;;;;;;-2.89;100.00;100708.32;105874;1272;1003068;-74
2023/01/24 12:10:01;;;;;;;18.00;7.70;;;;;;;-2.88;100.00;100701.94;106712;1276;22539;-69
2023/01/24 12:13:26;;;;;;;17.50;7.30;;;;;;;-2.87;100.00;100707.52;105933;1274;1003370;-69
2023/01/24 12:16:42;;;;;;;20.70;7.70;;;;;;;-2.88;100.00;100678.46;106499;1274;24236;-68
2023/01/24 12:19:28;;;;;;;19.70;7.90;;;;;;;-2.88;100.00;100693.80;106650;1273;22701;-65
2023/01/24 12:22:14;;;;;;;24.50;7.80;;;;;;;-2.88;100.00;100686.56;106297;1273;22553;-70
2023/01/24 12:25:45;;;;;;;20.20;7.70;;;;;;;-2.86;100.00;100681.39;106726;1273;23465;-69
2023/01/24 12:28:47;;;;;;;17.40;7.20;;;;;;;-2.87;100.00;100665.02;105925;1281;1003385;-75
2023/01/24 12:31:24;;;;;;;16.50;7.30;;;;;;;-2.89;100.00;100665.63;105931;1280;1002921;-75
2023/01/24 12:35:19;;;;;;;18.60;7.00;;;;;;;-2.90;100.00;100669.73;105899;1281;1002559;-75
2023/01/24 12:38:01;;;;;;;17.70;8.20;;;;;;;-2.89;100.00;100632.27;105331;1285;1003334;-75
2023/01/24 12:40:41;;;;;;;23.30;8.30;;;;;;;-2.87;100.00;100642.42;105438;1279;1002856;-75
2023/01/24 12:43:20;;;;;;;26.70;9.10;;;;;;;-2.91;100.00;100638.73;105786;1277;1002922;-74
2023/01/24 12:46:13;;;;;;;38.60;14.00;;;;;;;-2.95;100.00;100631.52;105812;1276;1003400;-76
2023/01/24 12:49:09;;;;;;;29.60;11.30;;;;;;;-3.00;100.00;100621.14;106504;1279;22540;-71
2023/01/24 12:51:52;;;;;;;24.80;10.80;;;;;;;-3.01;100.00;100615.55;105788;1279;1003253;-73
2023/01/24 12:54:52;;;;;;;24.20;9.20;;;;;;;-3.01;100.00;100615.92;106597;1273;25335;-74
2023/01/24 12:57:43;;;;;;;18.30;9.00;;;;;;;-3.01;100.00;100605.86;106688;1276;22552;-75
2023/01/24 13:00:19;;;;;;;18.90;8.20;;;;;;;-3.02;100.00;100603.62;106685;1279;25314;-75
2023/01/24 13:03:13;;;;;;;18.90;8.60;;;;;;;-3.02;100.00;100608.02;105915;1274;1002911;-76
2023/01/24 13:06:19;;;;;;;17.80;7.70;;;;;;;-3.04;100.00;100599.67;106680;1274;24402;-69
2023/01/24 13:09:23;;;;;;;22.70;9.50;;;;;;;-3.06;100.00;100589.86;106749;1273;22639;-69
2023/01/24 13:11:52;;;;;;;21.50;9.10;;;;;;;-3.08;100.00;100585.35;105731;1273;1003051;-75
2023/01/24 13:14:36;;;;;;;31.90;11.90;;;;;;;-3.08;100.00;100590.09;106746;1271;25232;-74
2023/01/24 13:17:23;;;;;;;21.30;8.50;;;;;;;-3.07;100.00;100582.48;105980;1273;1002613;-75
2023/01/24 13:20:03;;;;;;;20.60;8.20;;;;;;;-3.10;100.00;100575.73;106553;1269;22543;-73
2023/01/24 13:22:54;;;;;;;24.60;9.40;;;;;;;-3.12;100.00;100572.11;106637;1271;24425;-74
2023/01/24 13:25:23;;;;;;;21.10;8.20;;;;;;;-3.11;100.00;100562.92;106664;1271;26601;-75
2023/01/24 13:27:57;;;;;;;17.00;8.60;;;;;;;-3.13;100.00;100565.10;106788;1272;22541;-76
2023/01/24 13:31:18;;;;;;;19.70;8.70;;;;;;;-3.13;100.00;100557.02;106766;1276;24223;-76
2023/01/24 13:34:17;;;;;;;18.40;7.70;;;;;;;-3.11;100.00;100525.89;106074;1276;1003132;-67
2023/01/24 13:36:51;;;;;;;22.20;8.90;;;;;;;-3.10;100.00;100544.34;106122;1276;1003033;-67
2023/01/24 13:39:42;;;;;;;20.10;8.70;;;;;;;-3.08;100.00;100538.08;106793;1276;22592;-67
2023/01/24 13:42:17;;;;;;;14.90;6.10;;;;;;;-3.08;100.00;100530.67;106673;1276;24231;-68
2023/01/24 13:44:48;;;;;;;12.90;5.50;;;;;;;-3.08;100.00;100529.80;106095;1276;1003346;-68
2023/01/24 13:48:03;;;;;;;12.50;4.90;;;;;;;-3.10;100.00;100524.23;106843;1276;26637;-68
2023/01/24 13:51:23;;;;;;;12.40;4.60;;;;;;;-3.10;100.00;100506.27;106635;1276;25361;-68
2023/01/24 13:54:01;;;;;;;10.20;4.80;;;;;;;-3.09;100.00;100494.90;105997;1276;1003072;-75
2023/01/24 13:56:31;;;;;;;11.20;5.00;;;;;;;-3.07;100.00;100501.51;106008;1274;1003083;-75
2023/01/24 13:59:00;;;;;;;14.70;6.70;;;;;;;-3.08;100.00;100502.61;106754;1258;26831;-76
2023/01/24 14:01:29;;;;;;;13.10;5.30;;;;;;;-3.09;100.00;100497.23;105990;1273;1003333;-75
2023/01/24 14:03:59;;;;;;;9.30;4.80;;;;;;;-3.12;100.00;100498.02;105963;1272;1003652;-75
2023/01/24 14:06:43;;;;;;;11.30;5.30;;;;;;;-3.12;100.00;100498.40;105983;1276;1002929;-69
2023/01/24 14:09:22;;;;;;;9.90;4.60;;;;;;;-3.11;100.00;100483.56;106056;1269;1003388;-75
2023/01/24 14:12:02;;;;;;;16.40;7.60;;;;;;;-3.11;100.00;100482.15;106738;1269;24113;-69
2023/01/24 14:14:35;;;;;;;17.10;6.80;;;;;;;-3.09;100.00;100473.92;106839;1276;23228;-69
2023/01/24 14:17:24;;;;;;;22.30;7.30;;;;;;;-3.06;100.00;100474.32;106071;1276;1002521;-69
2023/01/24 14:19:54;;;;;;;17.80;7.30;;;;;;;-3.04;100.00;100465.59;106731;1276;22534;-68
2023/01/24 14:22:37;;;;;;;17.10;6.70;;;;;;;-3.03;100.00;100466.60;106807;1271;25316;-70
2023/01/24 14:25:26;;;;;;;26.20;10.70;;;;;;;-3.03;100.00;100461.11;106864;1274;22551;-75
2023/01/24 14:28:00;;;;;;;21.50;9.20;;;;;;;-3.01;100.00;100445.14;106700;1276;24302;-75
2023/01/24 14:30:29;;;;;;;18.60;7.80;;;;;;;-2.98;100.00;100453.85;106717;1275;26692;-74
2023/01/24 14:33:30;;;;;;;20.20;6.70;;;;;;;-2.98;100.00;100454.19;106625;1269;25321;-77
2023/01/24 15:17:31;;;;;;;16.50;7.50;;;;;;;-2.97;100.00;100500.49;104998;1303;558167;-70
2023/01/24 15:20:13;;;;;;;14.20;6.80;;;;;;;-2.83;100.00;100449.40;106330;1287;308515;-71
2023/01/24 15:22:42;;;;;;;16.60;6.50;;;;;;;-2.81;100.00;100451.57;107162;1278;24235;-72
2023/01/24 15:25:31;;;;;;;15.40;6.00;;;;;;;-2.78;100.00;100448.28;107048;1278;25422;-70
2023/01/24 15:28:10;;;;;;;15.90;6.20;;;;;;;-2.75;100.00;100431.73;107037;1271;22550;-70
2023/01/24 15:30:59;;;;;;;15.30;7.10;;;;;;;-2.75;100.00;100433.29;106891;1278;22478;-70
2023/01/24 15:33:41;;;;;;;15.00;6.30;;;;;;;-2.74;100.00;100420.53;105959;1278;1002839;-69
2023/01/24 15:36:26;;;;;;;15.90;6.30;;;;;;;-2.73;100.00;100417.85;106951;1275;22536;-69
2023/01/24 15:38:58;;;;;;;11.80;5.70;;;;;;;-2.72;100.00;100414.42;106991;1275;25260;-70
2023/01/24 15:44:27;;;;;;;13.80;5.90;;;;;;;-2.75;100.00;100400.62;106923;1275;22541;-70
2023/01/24 15:47:44;;;;;;;12.20;5.70;;;;;;;-2.76;100.00;100412.15;106921;1275;25432;-70
2023/01/24 15:53:27;;;;;;;11.90;5.30;;;;;;;-2.77;100.00;100392.65;106824;1275;22531;-72
2023/01/24 15:55:59;;;;;;;11.30;4.70;;;;;;;-2.80;100.00;100390.28;106972;1275;22811;-70
2023/01/24 15:58:39;;;;;;;11.20;4.70;;;;;;;-2.82;100.00;100390.08;106168;1275;1003354;-69
2023/01/24 16:01:13;;;;;;;8.80;3.90;;;;;;;-2.85;100.00;100393.71;106223;1275;1002633;-70
2023/01/24 16:03:43;;;;;;;8.30;3.80;;;;;;;-2.88;100.00;100397.23;107015;1275;22526;-72
2023/01/24 16:06:15;;;;;;;8.30;3.70;;;;;;;-2.91;100.00;100396.70;106314;1275;1003195;-70
2023/01/24 16:08:44;;;;;;;8.50;3.90;;;;;;;-2.93;100.00;100394.67;107043;1275;25395;-71
2023/01/24 16:11:15;;;;;;;9.90;4.20;;;;;;;-2.94;100.00;100391.55;106945;1275;26702;-70
2023/01/24 16:13:46;;;;;;;10.90;4.50;;;;;;;-2.95;100.00;100397.03;106785;1275;22530;-71
2023/01/24 16:16:15;;;;;;;9.50;4.30;;;;;;;-2.96;100.00;100393.38;106246;1275;1002731;-70
2023/01/24 16:18:43;;;;;;;5.80;3.80;;;;;;;-2.97;100.00;100396.62;106843;1275;25236;-70
2023/01/24 16:21:12;;;;;;;13.00;5.00;;;;;;;-2.98;100.00;100394.92;106276;1275;1003039;-71